Time;durP1;ratioP1;P1;durP2;ratioP2;P2;SDS_P1;SDS_P2;PMS_P1;PMS_P2;Temp;Humidity;BMP_temperature;BMP_pressure;BME280_temperature;BME280_humidity;BME280_pressure;Samples;Min_cycle;Max_cycle;Signal;HPM_P1;HPM_P2
2022/03/06 00:02:15;;;;;;;95.27;36.73;;;;;;;;;;5030805;28;20444;-66
2022/03/06 00:04:42;;;;;;;111.60;37.93;;;;;;;;;;5028124;28;20468;-65
2022/03/06 00:07:09;;;;;;;100.70;36.73;;;;;;;;;;5035575;28;20825;-65
2022/03/06 00:09:36;;;;;;;98.40;36.23;;;;;;;;;;5043874;28;20449;-65
2022/03/06 00:12:03;;;;;;;100.93;36.40;;;;;;;;;;5044332;28;20437;-65
2022/03/06 00:14:29;;;;;;;98.17;33.80;;;;;;;;;;5041601;28;20450;-65
2022/03/06 00:16:56;;;;;;;95.80;35.30;;;;;;;;;;5033434;28;20440;-65
2022/03/06 00:19:23;;;;;;;92.37;35.10;;;;;;;;;;5028151;28;20826;-65
2022/03/06 00:21:49;;;;;;;94.60;34.83;;;;;;;;;;5032838;28;20439;-65
2022/03/06 00:24:16;;;;;;;93.57;34.40;;;;;;;;;;5027115;28;20887;-65
2022/03/06 00:26:42;;;;;;;85.17;31.07;;;;;;;;;;5027910;28;20478;-65
2022/03/06 00:29:09;;;;;;;89.30;33.17;;;;;;;;;;5043717;28;20443;-65
2022/03/06 00:31:35;;;;;;;85.60;31.20;;;;;;;;;;5035231;28;20432;-65
2022/03/06 00:34:02;;;;;;;83.13;31.43;;;;;;;;;;5046636;28;20432;-65
2022/03/06 00:36:29;;;;;;;94.40;32.10;;;;;;;;;;5037408;28;20496;-65
2022/03/06 00:38:55;;;;;;;83.47;32.03;;;;;;;;;;5029180;28;21179;-65
2022/03/06 00:41:23;;;;;;;86.77;30.97;;;;;;;;;;5028108;28;20440;-65
2022/03/06 00:43:50;;;;;;;74.27;30.17;;;;;;;;;;5044547;28;20456;-65
2022/03/06 00:46:16;;;;;;;83.90;30.03;;;;;;;;;;5047168;28;20435;-65
2022/03/06 00:48:43;;;;;;;72.47;29.73;;;;;;;;;;5043978;28;22436;-65
2022/03/06 00:51:11;;;;;;;80.20;29.17;;;;;;;;;;5035870;28;20470;-65
2022/03/06 00:53:38;;;;;;;82.03;31.83;;;;;;;;;;5034783;28;20461;-65
2022/03/06 00:56:04;;;;;;;75.00;30.17;;;;;;;;;;5042634;28;20483;-65
2022/03/06 00:58:31;;;;;;;76.40;28.77;;;;;;;;;;5031522;28;20449;-65
2022/03/06 01:00:57;;;;;;;68.67;27.93;;;;;;;;;;5041185;28;21025;-65
2022/03/06 01:03:24;;;;;;;70.87;26.73;;;;;;;;;;5047175;28;20995;-65
2022/03/06 01:41:19;;;;;;;51.77;21.37;;;;;;;;;;5041849;28;20425;-65
2022/03/06 01:43:46;;;;;;;62.70;23.50;;;;;;;;;;5034561;28;20761;-65
2022/03/06 01:46:13;;;;;;;58.07;23.30;;;;;;;;;;5036862;28;20454;-65
2022/03/06 01:48:39;;;;;;;54.97;22.83;;;;;;;;;;5043369;28;20462;-65
2022/03/06 01:51:06;;;;;;;61.23;22.23;;;;;;;;;;5036713;28;20442;-65
2022/03/06 01:53:33;;;;;;;53.13;21.63;;;;;;;;;;5044950;28;20870;-65
2022/03/06 01:55:59;;;;;;;58.03;23.70;;;;;;;;;;5035387;28;20447;-65
2022/03/06 01:58:26;;;;;;;67.03;25.67;;;;;;;;;;5037157;28;20464;-65
2022/03/06 02:00:52;;;;;;;56.03;23.40;;;;;;;;;;5043747;28;20543;-65
2022/03/06 02:03:19;;;;;;;53.77;22.70;;;;;;;;;;5032190;28;20437;-65
2022/03/06 02:05:46;;;;;;;55.97;22.27;;;;;;;;;;5032522;28;20473;-65
2022/03/06 02:08:12;;;;;;;51.73;22.50;;;;;;;;;;5039389;28;20530;-65
2022/03/06 02:10:39;;;;;;;59.97;23.13;;;;;;;;;;5046649;28;21175;-65
2022/03/06 02:13:06;;;;;;;46.43;21.37;;;;;;;;;;5029204;28;20443;-65
2022/03/06 02:15:32;;;;;;;48.40;19.67;;;;;;;;;;5031003;28;20448;-65
2022/03/06 02:17:59;;;;;;;55.33;22.77;;;;;;;;;;5029718;28;20614;-65
2022/03/06 02:20:26;;;;;;;57.17;21.37;;;;;;;;;;5030741;28;20437;-65
2022/03/06 02:22:53;;;;;;;47.80;21.17;;;;;;;;;;5045157;28;20441;-65
2022/03/06 02:25:22;;;;;;;55.80;21.47;;;;;;;;;;5036028;28;20449;-65
2022/03/06 02:27:50;;;;;;;54.97;23.67;;;;;;;;;;5039976;28;20514;-65
2022/03/06 02:30:17;;;;;;;57.27;23.67;;;;;;;;;;5049241;28;20444;-65
2022/03/06 02:32:44;;;;;;;62.07;23.00;;;;;;;;;;5040954;28;20492;-65
2022/03/06 02:35:11;;;;;;;57.20;22.73;;;;;;;;;;5029786;28;20443;-65
2022/03/06 02:37:37;;;;;;;46.87;21.43;;;;;;;;;;5037837;28;20861;-65
2022/03/06 02:40:05;;;;;;;58.30;22.80;;;;;;;;;;5049457;28;20457;-65
2022/03/06 02:42:32;;;;;;;56.33;22.37;;;;;;;;;;5032948;28;20474;-65
2022/03/06 02:44:59;;;;;;;51.93;22.33;;;;;;;;;;5045450;28;20449;-65
2022/03/06 02:47:26;;;;;;;59.80;22.20;;;;;;;;;;5041624;28;20467;-65
2022/03/06 02:49:53;;;;;;;56.37;22.00;;;;;;;;;;5049474;28;20906;-65
2022/03/06 02:52:19;;;;;;;54.53;23.17;;;;;;;;;;5033949;28;21379;-65
2022/03/06 02:54:46;;;;;;;53.23;21.70;;;;;;;;;;5031213;28;20444;-65
2022/03/06 02:57:13;;;;;;;47.97;20.33;;;;;;;;;;5042682;28;20465;-65
2022/03/06 02:59:39;;;;;;;49.90;20.40;;;;;;;;;;5041993;28;21295;-65
2022/03/06 03:02:06;;;;;;;52.47;19.83;;;;;;;;;;5032750;28;20449;-65
2022/03/06 03:04:33;;;;;;;48.97;20.83;;;;;;;;;;5020739;28;20466;-65
2022/03/06 03:07:00;;;;;;;47.60;19.63;;;;;;;;;;5046156;28;20487;-65
2022/03/06 03:09:26;;;;;;;50.00;20.00;;;;;;;;;;5044457;28;20499;-65
2022/03/06 03:11:56;;;;;;;44.03;18.47;;;;;;;;;;5029926;28;20431;-65
2022/03/06 03:14:23;;;;;;;52.10;19.53;;;;;;;;;;5035466;28;21305;-65
2022/03/06 03:16:50;;;;;;;43.73;17.87;;;;;;;;;;5048465;28;20436;-65
2022/03/06 03:19:17;;;;;;;42.90;17.73;;;;;;;;;;5049096;28;20433;-65
2022/03/06 03:21:44;;;;;;;46.60;16.80;;;;;;;;;;5035882;28;20448;-65
2022/03/06 03:24:11;;;;;;;40.53;15.47;;;;;;;;;;5044026;28;20953;-65
2022/03/06 03:26:37;;;;;;;40.47;16.33;;;;;;;;;;5040363;28;20953;-65
2022/03/06 03:29:04;;;;;;;34.70;15.77;;;;;;;;;;5034420;28;20978;-65
2022/03/06 03:31:30;;;;;;;39.07;16.37;;;;;;;;;;5048243;28;20467;-65
2022/03/06 03:33:57;;;;;;;38.83;17.50;;;;;;;;;;5048625;28;20463;-65
2022/03/06 03:36:24;;;;;;;41.37;17.17;;;;;;;;;;5038452;28;20466;-65
2022/03/06 03:38:50;;;;;;;43.53;17.93;;;;;;;;;;5028667;28;20457;-65
2022/03/06 03:41:17;;;;;;;42.13;17.47;;;;;;;;;;5031494;28;20427;-65
2022/03/06 03:43:44;;;;;;;36.93;18.07;;;;;;;;;;5045791;28;20451;-65
2022/03/06 03:46:10;;;;;;;47.90;19.10;;;;;;;;;;5031809;28;20489;-65
2022/03/06 03:48:37;;;;;;;47.53;19.27;;;;;;;;;;5028404;28;20593;-65
2022/03/06 03:51:04;;;;;;;44.83;18.57;;;;;;;;;;5028307;28;20446;-65
2022/03/06 03:53:31;;;;;;;58.70;22.07;;;;;;;;;;5035018;28;20476;-65
2022/03/06 03:55:57;;;;;;;52.73;21.70;;;;;;;;;;5047842;28;20466;-65
2022/03/06 03:58:24;;;;;;;59.90;24.00;;;;;;;;;;5046688;28;20949;-65
2022/03/06 04:00:57;;;;;;;61.13;23.43;;;;;;;;;;5040106;28;20838;-65
2022/03/06 04:03:24;;;;;;;62.67;22.63;;;;;;;;;;5028048;28;20439;-65
2022/03/06 04:05:50;;;;;;;58.70;22.43;;;;;;;;;;5028934;28;20507;-65
2022/03/06 04:08:17;;;;;;;49.50;20.53;;;;;;;;;;5037959;28;20461;-65
2022/03/06 04:10:43;;;;;;;46.93;20.67;;;;;;;;;;5047607;28;20443;-65
2022/03/06 04:13:10;;;;;;;50.30;20.60;;;;;;;;;;5030680;28;20448;-65
2022/03/06 04:15:36;;;;;;;49.27;19.53;;;;;;;;;;5028248;28;20452;-65
2022/03/06 04:18:03;;;;;;;49.07;19.87;;;;;;;;;;5026901;28;20464;-65
2022/03/06 04:20:30;;;;;;;45.87;19.23;;;;;;;;;;5028866;28;20437;-65
2022/03/06 04:22:57;;;;;;;45.80;20.17;;;;;;;;;;5044733;28;20441;-65
2022/03/06 04:25:23;;;;;;;50.20;19.07;;;;;;;;;;5044936;28;20468;-65
2022/03/06 04:27:50;;;;;;;43.57;18.93;;;;;;;;;;5034087;28;20441;-65
2022/03/06 04:30:16;;;;;;;45.67;18.67;;;;;;;;;;5047778;28;20844;-65
2022/03/06 04:32:43;;;;;;;39.87;18.00;;;;;;;;;;5046309;28;20962;-65
2022/03/06 04:35:11;;;;;;;40.10;17.47;;;;;;;;;;5047170;28;20443;-65
2022/03/06 04:37:37;;;;;;;35.13;15.43;;;;;;;;;;5028141;28;21029;-65
2022/03/06 04:40:04;;;;;;;42.47;16.47;;;;;;;;;;5047066;28;20464;-65
2022/03/06 04:42:31;;;;;;;36.47;15.77;;;;;;;;;;5047452;28;20444;-65
2022/03/06 04:44:57;;;;;;;46.00;16.87;;;;;;;;;;5051583;28;20419;-65
2022/03/06 04:47:24;;;;;;;41.73;16.87;;;;;;;;;;5033640;28;20937;-65
2022/03/06 04:49:51;;;;;;;44.40;16.50;;;;;;;;;;5031648;28;21021;-65
2022/03/06 04:52:17;;;;;;;44.27;17.73;;;;;;;;;;5039105;28;20441;-65
2022/03/06 04:54:44;;;;;;;39.00;15.93;;;;;;;;;;5049679;28;20433;-65
2022/03/06 04:57:10;;;;;;;40.27;16.47;;;;;;;;;;5049853;28;20446;-65
2022/03/06 04:59:37;;;;;;;39.90;16.40;;;;;;;;;;5036353;28;20450;-65
2022/03/06 05:02:04;;;;;;;40.97;17.60;;;;;;;;;;5046244;28;20448;-65
2022/03/06 05:04:31;;;;;;;46.20;18.53;;;;;;;;;;5050274;28;20981;-65
2022/03/06 05:06:57;;;;;;;40.67;17.07;;;;;;;;;;5046794;28;20480;-64
2022/03/06 05:09:24;;;;;;;36.03;15.77;;;;;;;;;;5049820;28;20470;-65
2022/03/06 05:11:50;;;;;;;37.80;16.10;;;;;;;;;;5048037;28;20966;-65
2022/03/06 05:14:17;;;;;;;39.70;15.70;;;;;;;;;;5032952;28;21006;-65
2022/03/06 05:16:44;;;;;;;42.53;16.10;;;;;;;;;;5039463;28;20451;-65
2022/03/06 05:19:10;;;;;;;33.70;14.40;;;;;;;;;;5043463;28;20452;-65
2022/03/06 05:21:37;;;;;;;31.63;14.00;;;;;;;;;;5038035;28;20450;-65
2022/03/06 05:24:04;;;;;;;35.97;15.30;;;;;;;;;;5031908;28;20536;-65
2022/03/06 05:26:31;;;;;;;34.97;14.93;;;;;;;;;;5034396;28;20441;-65
2022/03/06 05:28:57;;;;;;;40.63;15.00;;;;;;;;;;5051067;28;20542;-65
2022/03/06 05:31:24;;;;;;;37.43;15.90;;;;;;;;;;5039662;28;20442;-65
2022/03/06 05:33:50;;;;;;;39.13;14.87;;;;;;;;;;5037879;28;20441;-65
2022/03/06 05:36:19;;;;;;;36.67;14.93;;;;;;;;;;5050470;28;20441;-65
2022/03/06 05:38:46;;;;;;;34.80;14.87;;;;;;;;;;5040277;28;20810;-65
2022/03/06 05:41:12;;;;;;;38.03;15.77;;;;;;;;;;5039037;28;20879;-65
2022/03/06 05:43:39;;;;;;;44.20;15.90;;;;;;;;;;5048805;28;20441;-65
2022/03/06 05:46:05;;;;;;;39.07;15.27;;;;;;;;;;5041839;28;20454;-65
2022/03/06 05:48:32;;;;;;;43.40;17.47;;;;;;;;;;5040662;28;20461;-65
2022/03/06 05:50:59;;;;;;;42.80;17.10;;;;;;;;;;5046560;28;20438;-65
2022/03/06 05:53:25;;;;;;;44.83;16.50;;;;;;;;;;5041564;28;20433;-65
2022/03/06 05:55:52;;;;;;;41.73;16.17;;;;;;;;;;5034168;28;20454;-65
2022/03/06 05:58:18;;;;;;;36.27;15.67;;;;;;;;;;5044881;28;20461;-65
2022/03/06 06:00:45;;;;;;;41.80;16.53;;;;;;;;;;5043511;28;20861;-65
2022/03/06 06:03:12;;;;;;;37.90;17.00;;;;;;;;;;5029787;28;20522;-66
2022/03/06 06:05:39;;;;;;;42.13;18.33;;;;;;;;;;5034922;28;20462;-66
2022/03/06 06:08:05;;;;;;;40.60;17.57;;;;;;;;;;5037239;28;20503;-66
2022/03/06 06:10:32;;;;;;;43.33;17.67;;;;;;;;;;5043581;28;20774;-68
2022/03/06 06:12:59;;;;;;;38.47;16.47;;;;;;;;;;5037913;28;20481;-69
2022/03/06 06:15:25;;;;;;;43.43;16.87;;;;;;;;;;5049553;28;20808;-68
2022/03/06 06:17:52;;;;;;;41.63;17.00;;;;;;;;;;5048734;28;20499;-68
2022/03/06 06:20:18;;;;;;;36.50;16.10;;;;;;;;;;5036073;28;20441;-69
2022/03/06 06:22:45;;;;;;;37.57;18.93;;;;;;;;;;5044117;28;20489;-68
2022/03/06 06:25:12;;;;;;;37.80;17.47;;;;;;;;;;5047133;28;20446;-68
2022/03/06 06:27:38;;;;;;;41.47;20.00;;;;;;;;;;5034195;28;20449;-68
2022/03/06 06:30:05;;;;;;;42.10;17.63;;;;;;;;;;5029464;28;20475;-68
2022/03/06 06:32:32;;;;;;;32.10;15.33;;;;;;;;;;5038794;28;20444;-68
2022/03/06 06:34:59;;;;;;;37.60;15.60;;;;;;;;;;5032351;28;20463;-69
2022/03/06 06:37:26;;;;;;;32.33;14.77;;;;;;;;;;5035653;28;20476;-69
2022/03/06 06:39:52;;;;;;;33.60;15.63;;;;;;;;;;5030212;28;20437;-69
2022/03/06 06:42:19;;;;;;;30.80;14.37;;;;;;;;;;5048493;28;20442;-69
2022/03/06 06:44:45;;;;;;;33.13;15.73;;;;;;;;;;5032910;28;20450;-69
2022/03/06 06:47:12;;;;;;;35.37;16.20;;;;;;;;;;5029825;28;20427;-69
2022/03/06 06:49:39;;;;;;;35.53;16.73;;;;;;;;;;5028242;28;20470;-69
2022/03/06 06:52:06;;;;;;;44.57;18.27;;;;;;;;;;5017270;28;20495;-69
2022/03/06 06:54:33;;;;;;;42.40;19.20;;;;;;;;;;5050082;28;20533;-68
2022/03/06 06:57:00;;;;;;;46.10;19.40;;;;;;;;;;5043019;28;20438;-69
2022/03/06 06:59:26;;;;;;;39.67;17.73;;;;;;;;;;5037529;28;20436;-69
2022/03/06 07:01:53;;;;;;;40.57;18.00;;;;;;;;;;5054271;28;20496;-69
2022/03/06 07:04:20;;;;;;;43.73;17.47;;;;;;;;;;5036055;28;20473;-69
2022/03/06 07:06:47;;;;;;;49.10;19.83;;;;;;;;;;5047341;28;20433;-68
2022/03/06 07:09:13;;;;;;;40.97;18.43;;;;;;;;;;5029661;28;20474;-69
2022/03/06 07:11:40;;;;;;;40.63;19.13;;;;;;;;;;5044284;28;20438;-69
2022/03/06 07:14:06;;;;;;;47.20;18.80;;;;;;;;;;5029304;28;20434;-69
2022/03/06 07:16:33;;;;;;;43.63;19.93;;;;;;;;;;5032444;28;20519;-69
2022/03/06 07:19:01;;;;;;;48.73;19.47;;;;;;;;;;5047693;28;20472;-69
2022/03/06 07:21:27;;;;;;;42.60;20.13;;;;;;;;;;5044298;28;20778;-69
2022/03/06 07:23:54;;;;;;;44.77;18.60;;;;;;;;;;5054432;28;20522;-69
2022/03/06 07:26:21;;;;;;;41.97;17.50;;;;;;;;;;5069121;28;20519;-69
2022/03/06 07:28:48;;;;;;;20.97;10.07;;;;;;;;;;5049890;28;20488;-69
2022/03/06 07:31:14;;;;;;;23.10;9.67;;;;;;;;;;5047229;28;20502;-69
2022/03/06 07:33:41;;;;;;;18.27;8.37;;;;;;;;;;5048679;28;20496;-69
2022/03/06 07:36:08;;;;;;;20.80;8.40;;;;;;;;;;5048989;28;20429;-68
2022/03/06 07:38:34;;;;;;;7.73;4.40;;;;;;;;;;5049292;28;20804;-68
2022/03/06 07:41:01;;;;;;;8.87;4.00;;;;;;;;;;5048664;28;20433;-69
2022/03/06 07:43:28;;;;;;;7.40;4.20;;;;;;;;;;5047485;28;20796;-69
2022/03/06 07:45:55;;;;;;;9.33;4.23;;;;;;;;;;5047605;28;20829;-68
2022/03/06 07:48:22;;;;;;;10.97;4.10;;;;;;;;;;5048581;28;21369;-68
2022/03/06 07:50:49;;;;;;;9.00;5.00;;;;;;;;;;5047580;28;20942;-68
2022/03/06 07:53:15;;;;;;;9.47;4.93;;;;;;;;;;5047775;28;20441;-68
2022/03/06 07:55:42;;;;;;;9.03;4.57;;;;;;;;;;5047179;28;20479;-69
2022/03/06 07:58:09;;;;;;;9.30;5.20;;;;;;;;;;5047299;28;20804;-69
2022/03/06 08:00:35;;;;;;;12.43;6.60;;;;;;;;;;5048538;28;20928;-68
2022/03/06 08:03:02;;;;;;;13.40;5.90;;;;;;;;;;5049577;28;20429;-68
2022/03/06 08:05:29;;;;;;;12.17;4.80;;;;;;;;;;5049838;28;20861;-69
2022/03/06 08:07:56;;;;;;;10.50;4.40;;;;;;;;;;5038214;28;20441;-69
2022/03/06 08:10:22;;;;;;;9.77;4.90;;;;;;;;;;5027949;28;20486;-69
2022/03/06 08:12:49;;;;;;;10.00;5.30;;;;;;;;;;5043830;28;20440;-69
2022/03/06 08:15:16;;;;;;;10.93;4.50;;;;;;;;;;5027975;28;20811;-69
2022/03/06 08:17:43;;;;;;;10.50;4.67;;;;;;;;;;5032351;28;21108;-69
2022/03/06 08:20:09;;;;;;;7.23;3.17;;;;;;;;;;5032709;28;20929;-68
2022/03/06 08:22:36;;;;;;;6.80;2.87;;;;;;;;;;5032359;28;20945;-69
2022/03/06 08:25:03;;;;;;;7.10;3.20;;;;;;;;;;5032246;28;20829;-69
2022/03/06 08:27:30;;;;;;;9.60;3.70;;;;;;;;;;5032265;28;20437;-69
2022/03/06 08:29:57;;;;;;;6.00;2.97;;;;;;;;;;5032307;28;20465;-69
2022/03/06 08:32:24;;;;;;;6.53;3.13;;;;;;;;;;5047718;28;20449;-69
2022/03/06 08:34:51;;;;;;;8.67;3.80;;;;;;;;;;5032483;28;20504;-69
2022/03/06 08:37:18;;;;;;;7.73;3.30;;;;;;;;;;5032071;28;20434;-69
2022/03/06 08:39:45;;;;;;;6.27;3.20;;;;;;;;;;5031121;28;20430;-69
2022/03/06 08:42:12;;;;;;;4.97;2.60;;;;;;;;;;5047240;28;20417;-69
2022/03/06 08:44:39;;;;;;;7.33;3.03;;;;;;;;;;5047742;28;20457;-69
2022/03/06 08:47:06;;;;;;;5.63;2.57;;;;;;;;;;5047252;28;20430;-69
2022/03/06 08:49:33;;;;;;;3.83;2.40;;;;;;;;;;5032084;28;20497;-69
2022/03/06 08:51:59;;;;;;;7.60;2.53;;;;;;;;;;5047130;28;20445;-67
2022/03/06 08:54:26;;;;;;;5.50;2.37;;;;;;;;;;5031712;28;20434;-67
2022/03/06 08:56:53;;;;;;;4.00;1.87;;;;;;;;;;5036505;28;20797;-65
2022/03/06 08:59:20;;;;;;;4.70;2.20;;;;;;;;;;5044411;28;20486;-65
2022/03/06 09:01:47;;;;;;;5.03;2.20;;;;;;;;;;5044505;28;20442;-65
2022/03/06 09:04:14;;;;;;;5.43;2.53;;;;;;;;;;5046478;28;20453;-62
2022/03/06 09:06:41;;;;;;;4.83;2.30;;;;;;;;;;5044411;28;20511;-60
2022/03/06 09:09:08;;;;;;;7.70;3.30;;;;;;;;;;5045765;28;20447;-61
2022/03/06 09:11:35;;;;;;;6.70;3.00;;;;;;;;;;5045103;28;20479;-61
2022/03/06 09:14:01;;;;;;;6.23;2.50;;;;;;;;;;5044120;28;20436;-61
2022/03/06 09:16:28;;;;;;;5.70;2.70;;;;;;;;;;5045374;28;20441;-60
2022/03/06 09:18:55;;;;;;;4.17;2.33;;;;;;;;;;5044399;28;20451;-61
2022/03/06 09:21:21;;;;;;;3.60;1.90;;;;;;;;;;5045848;28;20801;-60
2022/03/06 09:23:48;;;;;;;4.53;2.07;;;;;;;;;;5046511;28;20828;-61
2022/03/06 09:26:15;;;;;;;6.43;2.33;;;;;;;;;;5045811;28;20433;-61
2022/03/06 09:28:42;;;;;;;5.10;2.13;;;;;;;;;;5044428;28;20433;-60
2022/03/06 09:31:10;;;;;;;4.93;2.80;;;;;;;;;;5044855;28;20487;-60
2022/03/06 09:33:39;;;;;;;5.97;2.67;;;;;;;;;;5045522;28;21126;-61
2022/03/06 09:36:06;;;;;;;5.47;3.10;;;;;;;;;;5045058;28;20905;-61
2022/03/06 09:38:33;;;;;;;3.77;2.30;;;;;;;;;;5044070;28;20445;-61
2022/03/06 09:41:02;;;;;;;3.20;2.07;;;;;;;;;;5045373;28;20429;-60
2022/03/06 09:43:29;;;;;;;2.93;1.53;;;;;;;;;;5045327;28;20520;-61
2022/03/06 09:45:58;;;;;;;2.30;1.30;;;;;;;;;;5045311;28;20640;-60
2022/03/06 09:48:25;;;;;;;2.83;1.40;;;;;;;;;;5042427;28;21130;-60
2022/03/06 09:50:52;;;;;;;3.67;1.90;;;;;;;;;;5044211;28;20535;-60
2022/03/06 09:53:18;;;;;;;3.37;1.80;;;;;;;;;;5045135;28;20818;-60
2022/03/06 09:55:45;;;;;;;4.87;2.20;;;;;;;;;;5043464;28;20492;-61
2022/03/06 09:58:14;;;;;;;4.20;1.87;;;;;;;;;;5043161;28;20488;-60
2022/03/06 10:00:41;;;;;;;3.77;1.90;;;;;;;;;;5044733;28;20437;-61
2022/03/06 10:03:10;;;;;;;4.30;1.70;;;;;;;;;;5043601;28;20426;-60
2022/03/06 10:05:37;;;;;;;4.37;1.97;;;;;;;;;;5027261;28;20524;-61
2022/03/06 10:08:21;;;;;;;6.23;2.43;;;;;;;;;;5043897;28;20429;-60
2022/03/06 10:10:51;;;;;;;6.03;2.10;;;;;;;;;;5044893;28;20480;-61
2022/03/06 10:13:18;;;;;;;6.33;3.40;;;;;;;;;;5043586;28;20435;-59
2022/03/06 10:16:03;;;;;;;7.47;3.30;;;;;;;;;;5044692;28;20480;-59
2022/03/06 10:18:32;;;;;;;3.23;2.10;;;;;;;;;;5044067;28;20472;-59
2022/03/06 10:21:08;;;;;;;6.67;1.73;;;;;;;;;;5043274;28;20426;-59
2022/03/06 10:23:35;;;;;;;4.93;1.57;;;;;;;;;;5044071;28;20911;-59
2022/03/06 10:26:03;;;;;;;3.57;1.80;;;;;;;;;;5043956;28;20464;-59
2022/03/06 10:28:29;;;;;;;4.47;1.60;;;;;;;;;;5043475;28;20532;-59
2022/03/06 10:31:03;;;;;;;5.30;2.13;;;;;;;;;;5043162;28;20484;-59
2022/03/06 10:33:30;;;;;;;4.33;1.93;;;;;;;;;;5044038;28;20471;-59
2022/03/06 10:35:58;;;;;;;4.27;1.70;;;;;;;;;;5044039;28;20437;-59
2022/03/06 10:38:33;;;;;;;3.80;1.63;;;;;;;;;;5042409;28;20789;-58
2022/03/06 10:41:01;;;;;;;4.17;1.70;;;;;;;;;;5043877;28;20451;-60
2022/03/06 10:43:28;;;;;;;3.83;1.53;;;;;;;;;;5043911;28;20430;-59
2022/03/06 10:46:10;;;;;;;2.70;1.53;;;;;;;;;;5042901;28;20543;-59
2022/03/06 10:48:38;;;;;;;3.67;1.83;;;;;;;;;;5042899;28;20875;-60
2022/03/06 10:51:06;;;;;;;5.57;2.13;;;;;;;;;;5043343;28;20491;-59
2022/03/06 10:53:33;;;;;;;3.67;1.57;;;;;;;;;;5043827;28;21020;-60
2022/03/06 10:56:05;;;;;;;3.37;1.70;;;;;;;;;;5042901;28;20438;-59
2022/03/06 10:58:32;;;;;;;3.40;1.70;;;;;;;;;;5043193;28;20911;-60
2022/03/06 11:01:19;;;;;;;4.13;1.70;;;;;;;;;;5042270;28;21277;-59
2022/03/06 11:03:46;;;;;;;3.77;1.70;;;;;;;;;;5042743;28;20457;-58
2022/03/06 11:06:13;;;;;;;5.33;2.17;;;;;;;;;;5042757;28;20915;-58
2022/03/06 11:08:40;;;;;;;3.57;1.90;;;;;;;;;;5042535;28;20431;-59
2022/03/06 11:11:07;;;;;;;5.43;2.43;;;;;;;;;;5042611;28;20910;-61
2022/03/06 11:13:34;;;;;;;3.60;2.30;;;;;;;;;;5042007;28;20430;-59
2022/03/06 11:16:01;;;;;;;6.27;2.27;;;;;;;;;;5043546;28;20519;-59
2022/03/06 11:18:30;;;;;;;5.87;2.87;;;;;;;;;;5042857;28;20471;-59
2022/03/06 11:20:57;;;;;;;5.97;2.50;;;;;;;;;;5043158;28;20932;-59
2022/03/06 11:23:30;;;;;;;5.70;2.73;;;;;;;;;;5043733;28;20486;-59
2022/03/06 11:26:09;;;;;;;4.93;2.10;;;;;;;;;;5043279;28;20426;-62
2022/03/06 11:28:36;;;;;;;5.33;2.33;;;;;;;;;;5040623;28;20454;-60
2022/03/06 11:31:02;;;;;;;5.00;2.43;;;;;;;;;;5037585;28;20482;-59
2022/03/06 11:33:29;;;;;;;5.70;2.20;;;;;;;;;;5038806;28;20438;-59
2022/03/06 11:35:56;;;;;;;4.60;2.40;;;;;;;;;;5043309;28;20430;-59
2022/03/06 11:38:37;;;;;;;5.93;2.53;;;;;;;;;;5042878;28;20465;-59
2022/03/06 11:41:08;;;;;;;4.33;1.90;;;;;;;;;;5041987;28;21310;-59
2022/03/06 11:43:44;;;;;;;4.00;1.90;;;;;;;;;;5042603;28;20532;-59
2022/03/06 11:46:14;;;;;;;5.33;1.83;;;;;;;;;;5041015;28;20443;-59
2022/03/06 11:48:44;;;;;;;5.40;2.30;;;;;;;;;;5037353;28;21215;-59
2022/03/06 11:51:20;;;;;;;5.70;2.60;;;;;;;;;;5028115;28;20533;-59
2022/03/06 11:53:53;;;;;;;5.83;2.63;;;;;;;;;;5043372;28;20836;-59
2022/03/06 11:56:32;;;;;;;6.17;2.60;;;;;;;;;;5048622;28;20938;-59
2022/03/06 11:58:59;;;;;;;7.57;2.60;;;;;;;;;;5048248;28;21378;-59
2022/03/06 12:01:29;;;;;;;3.60;2.17;;;;;;;;;;5048165;28;20432;-59
2022/03/06 12:04:08;;;;;;;5.20;2.53;;;;;;;;;;5063094;28;20778;-59
2022/03/06 12:06:58;;;;;;;9.00;3.03;;;;;;;;;;5047596;28;20991;-59
2022/03/06 12:09:28;;;;;;;5.33;2.40;;;;;;;;;;5028999;28;20442;-66
2022/03/06 12:11:59;;;;;;;5.67;2.33;;;;;;;;;;5032821;28;20814;-66
2022/03/06 12:14:37;;;;;;;6.97;2.93;;;;;;;;;;5045922;28;20820;-67
2022/03/06 12:17:04;;;;;;;4.53;2.67;;;;;;;;;;5052634;28;20424;-66
2022/03/06 12:19:43;;;;;;;3.83;2.50;;;;;;;;;;5056942;28;20519;-66
2022/03/06 12:22:22;;;;;;;5.60;2.73;;;;;;;;;;5049127;28;20543;-67
2022/03/06 12:25:07;;;;;;;7.03;2.67;;;;;;;;;;5068821;28;20523;-67
2022/03/06 12:27:35;;;;;;;7.00;3.27;;;;;;;;;;5052807;28;20448;-67
2022/03/06 12:30:05;;;;;;;7.87;3.40;;;;;;;;;;5073640;28;20443;-67
2022/03/06 12:32:32;;;;;;;6.13;3.00;;;;;;;;;;5050165;28;20480;-67
2022/03/06 12:35:09;;;;;;;7.30;2.77;;;;;;;;;;5039163;28;20433;-67
2022/03/06 12:37:40;;;;;;;8.03;3.70;;;;;;;;;;5040734;28;21477;-67
2022/03/06 12:40:14;;;;;;;7.43;3.37;;;;;;;;;;5059077;28;21001;-67
2022/03/06 12:42:41;;;;;;;8.47;3.53;;;;;;;;;;5049682;28;21130;-67
2022/03/06 12:45:12;;;;;;;6.37;3.53;;;;;;;;;;5040676;28;20448;-67
2022/03/06 12:47:39;;;;;;;9.23;4.10;;;;;;;;;;5060521;28;20447;-67
2022/03/06 12:50:11;;;;;;;6.83;3.23;;;;;;;;;;5052092;28;20907;-67
2022/03/06 12:52:38;;;;;;;9.57;3.53;;;;;;;;;;5056651;28;20467;-67
2022/03/06 12:55:05;;;;;;;7.77;3.57;;;;;;;;;;5044561;28;20464;-66
2022/03/06 12:57:36;;;;;;;6.33;3.00;;;;;;;;;;5059027;28;20487;-67
2022/03/06 13:00:04;;;;;;;5.20;2.60;;;;;;;;;;5056343;28;20448;-67
2022/03/06 13:02:30;;;;;;;6.90;3.80;;;;;;;;;;5034666;28;21127;-67
2022/03/06 13:04:57;;;;;;;9.53;3.60;;;;;;;;;;5054644;28;20541;-66
2022/03/06 13:07:24;;;;;;;7.90;3.90;;;;;;;;;;5042979;28;20489;-67
2022/03/06 13:10:04;;;;;;;10.93;3.93;;;;;;;;;;5044168;28;20809;-67
2022/03/06 13:12:35;;;;;;;6.30;3.10;;;;;;;;;;5043199;28;20808;-67
2022/03/06 13:15:03;;;;;;;8.50;4.30;;;;;;;;;;5042434;28;20425;-65
2022/03/06 13:17:29;;;;;;;9.73;4.43;;;;;;;;;;5044975;28;20433;-64
2022/03/06 13:19:59;;;;;;;11.53;5.13;;;;;;;;;;5045296;28;20433;-65
2022/03/06 13:22:26;;;;;;;9.30;6.10;;;;;;;;;;5046868;28;20425;-65
2022/03/06 13:24:57;;;;;;;8.73;4.50;;;;;;;;;;5043683;28;20839;-64
2022/03/06 13:27:28;;;;;;;11.27;4.20;;;;;;;;;;5045017;28;20524;-65
2022/03/06 13:30:09;;;;;;;6.20;3.40;;;;;;;;;;5043782;28;20429;-65
2022/03/06 13:32:36;;;;;;;10.30;4.40;;;;;;;;;;5044179;28;20514;-64
2022/03/06 13:35:04;;;;;;;9.23;4.70;;;;;;;;;;5044342;28;20421;-64
2022/03/06 13:37:38;;;;;;;7.63;3.17;;;;;;;;;;5045037;28;20425;-65
2022/03/06 13:40:09;;;;;;;6.80;3.43;;;;;;;;;;5042897;28;20490;-67
2022/03/06 13:42:36;;;;;;;7.87;3.57;;;;;;;;;;5043638;28;20492;-65
2022/03/06 13:45:05;;;;;;;7.40;3.23;;;;;;;;;;5038549;28;20859;-64
2022/03/06 13:47:39;;;;;;;8.47;3.33;;;;;;;;;;5044363;28;20422;-64
2022/03/06 13:50:07;;;;;;;12.17;5.87;;;;;;;;;;5043862;28;20448;-65
2022/03/06 13:52:35;;;;;;;6.23;3.10;;;;;;;;;;5046114;28;20510;-65
2022/03/06 13:55:04;;;;;;;9.17;3.50;;;;;;;;;;5043506;28;20429;-63
2022/03/06 13:57:31;;;;;;;8.07;3.30;;;;;;;;;;5043037;28;20536;-64
2022/03/06 14:00:19;;;;;;;8.37;3.47;;;;;;;;;;5043331;28;21190;-65
2022/03/06 14:02:57;;;;;;;12.10;5.43;;;;;;;;;;5043016;28;20857;-64
2022/03/06 14:05:28;;;;;;;9.83;4.60;;;;;;;;;;5042465;28;20483;-64
2022/03/06 14:07:55;;;;;;;8.77;3.93;;;;;;;;;;5046346;28;20528;-65
2022/03/06 14:10:37;;;;;;;6.63;3.13;;;;;;;;;;5042974;28;20464;-65
2022/03/06 14:13:18;;;;;;;6.63;3.67;;;;;;;;;;5042953;28;20451;-64
2022/03/06 14:15:44;;;;;;;6.50;3.93;;;;;;;;;;5043684;28;20448;-66
2022/03/06 14:18:11;;;;;;;7.03;3.23;;;;;;;;;;5042776;28;20471;-65
2022/03/06 14:20:44;;;;;;;8.23;3.00;;;;;;;;;;5043937;28;20507;-65
2022/03/06 14:23:11;;;;;;;10.50;4.03;;;;;;;;;;5042887;28;20546;-64
2022/03/06 14:25:38;;;;;;;11.90;4.33;;;;;;;;;;5043015;28;20437;-65
2022/03/06 14:28:05;;;;;;;10.63;5.00;;;;;;;;;;5043381;28;20426;-65
2022/03/06 14:30:31;;;;;;;13.47;5.47;;;;;;;;;;5041211;28;20544;-64
2022/03/06 14:32:58;;;;;;;11.27;4.83;;;;;;;;;;5042299;28;20480;-64
2022/03/06 14:35:25;;;;;;;8.97;4.10;;;;;;;;;;5043041;28;20492;-65
2022/03/06 14:37:54;;;;;;;10.60;4.80;;;;;;;;;;5044170;28;20441;-64
2022/03/06 14:40:22;;;;;;;9.40;4.70;;;;;;;;;;5041843;28;20445;-65
2022/03/06 14:42:49;;;;;;;13.73;5.60;;;;;;;;;;5042940;28;20442;-64
2022/03/06 14:45:18;;;;;;;12.50;5.00;;;;;;;;;;5042153;28;20466;-65
2022/03/06 14:47:46;;;;;;;12.10;5.80;;;;;;;;;;5043914;28;20926;-65
2022/03/06 14:50:13;;;;;;;9.83;4.63;;;;;;;;;;5043504;28;20460;-64
2022/03/06 14:52:40;;;;;;;12.80;5.23;;;;;;;;;;5042466;28;20579;-66
2022/03/06 14:55:07;;;;;;;10.70;4.57;;;;;;;;;;5043435;28;20433;-65
2022/03/06 14:57:34;;;;;;;10.33;5.33;;;;;;;;;;5043890;28;20444;-65
2022/03/06 15:00:01;;;;;;;10.13;5.23;;;;;;;;;;5043235;28;20512;-65
2022/03/06 15:02:27;;;;;;;11.37;4.77;;;;;;;;;;5043869;28;20869;-65
2022/03/06 15:04:54;;;;;;;9.70;5.10;;;;;;;;;;5041958;28;21069;-65
2022/03/06 15:07:21;;;;;;;13.40;5.57;;;;;;;;;;5042903;28;20437;-65
2022/03/06 15:09:48;;;;;;;12.90;5.57;;;;;;;;;;5042931;28;20528;-64